Cape Saint James, Canada
Current Conditions -  °F | °C
As of 1:00 PM on Thursday 23 Oct 2014 (Local Time) from CYZP Reporting Station
Broken Clouds Broken Clouds  
Wind Chill: 42°   Ceiling: 13000
Heat Index: 48°   Visibility: 9mi
Dew Point: 41°   Wind: 18mph
Humidity: 76%   Direction: 160°SSE
Pressure: 29.58"   Gusts: NA
Location:  51.94°N, 131.02°W
Report Text: CYZP 232000Z AUTO 16016KT 9SM SCT100 BKN130 BKN200 09/05 A2958 RMK SLP017
Loading
Personal Weather Stations






























Interactive Weather Map
Tropical Storm Tracking
New forecast layout! Learn more

10-Day Weather Forecast

Advertisements
Track Severe Weather on mobile